Middle Grove, Missouri
Current Conditions -  °F | °C
As of 2:55 AM on Friday 28 Nov 2014 (Local Time) from KHAE Reporting Station
Clear Clear  
Wind Chill: 15°   Ceiling: Unl
Heat Index: 25°   Visibility: 10mi
Dew Point: 19°   Wind: 10mph
Humidity: 80%   Direction: 140°SE
Pressure: 30.25"   Gusts: NA
Location:  39.4792°N, 92.217°W
Report Text: KHAE 280855Z AUTO 14009KT 10SM CLR M04/M07 A3025 RMK AO2
Loading
Personal Weather Stations






























Interactive Weather Map New forecast layout! Learn more

10-Day Weather Forecast

Advertisements
Track Severe Weather on mobile